createdAt,value
2019-02-28T00:00:41.746Z,16.20
2019-02-28T00:05:45.413Z,17.07
2019-02-28T00:10:49.595Z,16.77
2019-02-28T00:15:53.229Z,16.17
2019-02-28T00:20:56.900Z,16.23
2019-02-28T00:26:00.568Z,14.20
2019-02-28T00:31:04.336Z,15.00
2019-02-28T00:36:07.984Z,14.80
2019-02-28T00:41:11.964Z,15.30
2019-02-28T00:46:18.214Z,16.10
2019-02-28T00:51:21.871Z,14.60
2019-02-28T00:56:28.653Z,15.10
2019-02-28T01:01:32.308Z,16.43
2019-02-28T01:06:37.244Z,16.53
2019-02-28T01:11:40.937Z,15.07
2019-02-28T01:16:44.562Z,14.80
2019-02-28T01:21:48.207Z,14.73
2019-02-28T01:26:51.931Z,15.20
2019-02-28T01:31:55.651Z,14.87
2019-02-28T01:36:59.304Z,15.60
2019-02-28T01:42:02.957Z,15.80
2019-02-28T01:47:06.635Z,16.00
2019-02-28T01:52:10.817Z,16.20
2019-02-28T01:57:14.919Z,15.40
2019-02-28T02:02:18.599Z,15.20
2019-02-28T02:07:22.375Z,15.30
2019-02-28T02:12:26.044Z,15.23
2019-02-28T02:17:32.262Z,15.93
2019-02-28T02:22:35.067Z,15.97
2019-02-28T02:27:38.701Z,15.00
2019-02-28T02:32:42.370Z,13.77
2019-02-28T02:37:46.015Z,14.30
2019-02-28T02:42:50.167Z,15.07
2019-02-28T02:47:54.150Z,13.53
2019-02-28T02:53:05.066Z,13.97
2019-02-28T02:58:03.247Z,13.70
2019-02-28T03:03:07.834Z,12.87
2019-02-28T03:08:11.712Z,13.20
2019-02-28T03:13:15.423Z,12.50
2019-02-28T03:18:20.458Z,12.83
2019-02-28T03:23:24.799Z,12.87
2019-02-28T03:28:32.028Z,11.80
2019-02-28T03:33:33.853Z,11.43
2019-02-28T03:38:37.806Z,11.80
2019-02-28T03:43:43.931Z,11.90
2019-02-28T03:48:46.834Z,11.87
2019-02-28T03:53:55.651Z,11.43
2019-02-28T03:58:55.858Z,10.73
2019-02-28T04:03:59.493Z,10.53
2019-02-28T04:09:08.386Z,11.50
2019-02-28T04:14:10.350Z,10.80
2019-02-28T04:19:14.067Z,10.20
2019-02-28T04:24:17.680Z,11.53
2019-02-28T04:29:21.361Z,11.23
2019-02-28T04:34:25.084Z,10.87
2019-02-28T04:39:28.731Z,10.80
2019-02-28T04:44:32.380Z,11.47
2019-02-28T04:49:36.082Z,11.33
2019-02-28T04:54:39.749Z,12.73
2019-02-28T04:59:43.572Z,10.90
2019-02-28T05:04:47.244Z,11.20
2019-02-28T05:09:50.908Z,11.57
2019-02-28T05:14:55.286Z,12.03
2019-02-28T05:20:00.094Z,12.17
2019-02-28T05:25:04.000Z,12.67
2019-02-28T05:30:09.666Z,12.20
2019-02-28T05:35:13.493Z,12.70
2019-02-28T05:40:17.366Z,13.17
2019-02-28T05:45:21.210Z,14.33
2019-02-28T05:50:24.926Z,13.30
2019-02-28T05:55:28.593Z,15.30
2019-02-28T06:00:33.461Z,18.20
2019-02-28T06:05:38.954Z,20.83
2019-02-28T06:10:42.976Z,23.53
2019-02-28T06:15:46.702Z,25.77
2019-02-28T06:20:51.534Z,26.20
2019-02-28T06:25:59.339Z,25.93
2019-02-28T06:31:02.529Z,26.03
2019-02-28T06:36:06.542Z,25.33
2019-02-28T06:41:10.266Z,23.30
2019-02-28T06:46:13.972Z,21.27
2019-02-28T06:51:17.797Z,20.20
2019-02-28T06:56:22.627Z,19.50
2019-02-28T07:01:26.978Z,19.50
2019-02-28T07:06:35.732Z,17.90
2019-02-28T07:11:36.164Z,17.13
2019-02-28T07:16:39.987Z,16.40
2019-02-28T07:21:44.461Z,15.63
2019-02-28T07:26:48.367Z,16.40
2019-02-28T07:31:52.083Z,15.90
2019-02-28T07:36:55.801Z,15.93
2019-02-28T07:42:02.231Z,16.93
2019-02-28T07:47:05.060Z,17.03
2019-02-28T07:52:08.781Z,17.87
2019-02-28T07:57:16.935Z,18.60
2019-02-28T08:02:18.223Z,18.20
2019-02-28T08:07:23.426Z,16.80
2019-02-28T08:12:30.508Z,15.00
2019-02-28T08:17:32.735Z,14.47
2019-02-28T08:22:36.517Z,15.60
2019-02-28T08:27:40.247Z,14.60
2019-02-28T08:32:46.872Z,14.73
2019-02-28T08:37:55.735Z,14.13
2019-02-28T08:42:54.904Z,13.70
2019-02-28T08:47:58.539Z,13.87
2019-02-28T08:53:02.370Z,13.10
2019-02-28T08:58:06.777Z,14.07
2019-02-28T09:03:11.000Z,13.13
2019-02-28T09:08:14.727Z,13.50
2019-02-28T09:13:18.477Z,12.40
2019-02-28T09:18:22.142Z,13.10
2019-02-28T09:23:26.157Z,12.30
2019-02-28T09:28:29.881Z,12.70
2019-02-28T09:33:33.583Z,12.77
2019-02-28T09:38:37.665Z,13.60
2019-02-28T09:43:41.603Z,12.37
2019-02-28T09:48:45.377Z,13.23
2019-02-28T09:53:50.265Z,12.37
2019-02-28T09:58:54.527Z,12.60
2019-02-28T10:03:58.259Z,14.10
2019-02-28T10:09:01.956Z,12.93
2019-02-28T10:14:05.717Z,13.63
2019-02-28T10:19:10.196Z,12.73
2019-02-28T10:24:14.902Z,13.37
2019-02-28T10:29:18.609Z,14.93
2019-02-28T10:34:23.506Z,14.67
2019-02-28T10:39:27.662Z,16.67
2019-02-28T10:44:31.612Z,17.03
2019-02-28T10:49:35.798Z,18.10
2019-02-28T10:54:39.614Z,16.43
2019-02-28T10:59:43.389Z,15.83
2019-02-28T11:04:47.209Z,16.63
2019-02-28T11:09:50.864Z,16.60
2019-02-28T11:14:54.654Z,16.87
2019-02-28T11:19:58.450Z,15.73
2019-02-28T11:25:02.248Z,14.60
2019-02-28T11:30:07.389Z,24.13
2019-02-28T11:35:12.066Z,24.13
2019-02-28T11:40:16.662Z,19.33
2019-02-28T11:45:25.368Z,18.10
2019-02-28T11:50:27.513Z,17.07
2019-02-28T11:55:31.181Z,17.87
2019-02-28T12:00:35.848Z,15.00
2019-02-28T12:05:40.540Z,13.97
2019-02-28T12:10:44.212Z,13.90
2019-02-28T12:15:48.106Z,13.30
2019-02-28T12:20:52.013Z,10.87
2019-02-28T12:25:55.690Z,11.00
2019-02-28T12:31:00.265Z,11.33
2019-02-28T12:36:04.836Z,11.30
2019-02-28T12:41:08.593Z,10.50
2019-02-28T12:46:12.377Z,10.10
2019-02-28T12:51:16.065Z,10.37
2019-02-28T12:56:19.899Z,10.20
2019-02-28T13:01:23.588Z,10.00
2019-02-28T13:06:27.325Z,9.17
2019-02-28T13:11:31.158Z,9.30
2019-02-28T13:16:35.190Z,10.57
2019-02-28T13:21:43.620Z,11.43
2019-02-28T13:26:47.194Z,10.20
2019-02-28T13:31:51.030Z,11.23
2019-02-28T13:37:01.885Z,10.90
2019-02-28T13:42:03.252Z,10.97
2019-02-28T13:47:09.888Z,9.97
2019-02-28T13:52:18.879Z,9.70
2019-02-28T13:57:16.749Z,10.10
2019-02-28T14:02:21.573Z,9.37
2019-02-28T14:07:26.196Z,10.77
2019-02-28T14:12:31.016Z,10.70
2019-02-28T14:17:35.508Z,10.50
2019-02-28T14:22:52.428Z,10.33
2019-02-28T14:27:56.886Z,9.60
2019-02-28T14:33:03.745Z,9.03
2019-02-28T14:38:07.524Z,9.30
2019-02-28T14:43:11.203Z,9.50
2019-02-28T14:48:14.882Z,8.87
2019-02-28T14:53:18.661Z,9.20
2019-02-28T14:58:22.524Z,9.07
2019-02-28T15:03:26.649Z,9.43
2019-02-28T15:08:30.483Z,9.17
2019-02-28T15:13:34.345Z,10.27
2019-02-28T15:18:38.152Z,10.60
2019-02-28T15:23:41.921Z,14.00
2019-02-28T15:28:48.624Z,14.10
2019-02-28T15:33:52.745Z,13.77
2019-02-28T15:38:57.885Z,14.23
2019-02-28T15:44:01.548Z,13.47
2019-02-28T15:49:06.511Z,12.40
2019-02-28T15:54:10.914Z,17.53
2019-02-28T15:59:15.583Z,19.40
2019-02-28T16:04:19.599Z,20.50
2019-02-28T16:09:23.876Z,21.73
2019-02-28T16:14:27.624Z,20.30
2019-02-28T16:19:31.418Z,19.60
2019-02-28T16:24:36.815Z,18.63
2019-02-28T16:29:41.116Z,17.20
2019-02-28T16:34:44.887Z,17.60
2019-02-28T16:39:49.825Z,16.07
2019-02-28T16:44:53.936Z,16.27
2019-02-28T16:49:57.728Z,15.43
2019-02-28T16:55:20.791Z,18.07
2019-02-28T17:00:24.467Z,21.43
2019-02-28T17:05:31.827Z,22.73
2019-02-28T17:10:39.747Z,23.33
2019-02-28T17:16:05.172Z,23.03
2019-02-28T17:21:08.948Z,26.23
2019-02-28T17:26:13.002Z,20.37
2019-02-28T17:31:38.875Z,21.73
2019-02-28T17:36:44.156Z,19.83
2019-02-28T17:41:48.155Z,16.70
2019-02-28T17:46:52.879Z,17.03
2019-02-28T17:52:12.246Z,14.97
2019-02-28T17:57:52.262Z,14.90
2019-02-28T18:03:39.852Z,12.43
2019-02-28T18:09:12.727Z,10.67
2019-02-28T18:14:46.553Z,10.73
2019-02-28T18:20:15.680Z,10.07
2019-02-28T18:25:48.715Z,10.17
2019-02-28T18:31:06.443Z,10.90
2019-02-28T18:36:12.532Z,10.70
2019-02-28T18:41:17.916Z,10.80
2019-02-28T18:46:21.580Z,10.30
2019-02-28T18:51:25.334Z,10.27
2019-02-28T18:56:29.070Z,9.17
2019-02-28T19:01:33.925Z,10.23
2019-02-28T19:06:37.659Z,11.70
2019-02-28T19:11:41.352Z,11.57
2019-02-28T19:16:45.040Z,11.40
2019-02-28T19:21:48.714Z,11.23
2019-02-28T19:26:52.783Z,13.63
2019-02-28T19:31:58.463Z,12.23
2019-02-28T19:37:02.244Z,11.93
2019-02-28T19:42:06.122Z,12.93
2019-02-28T19:47:09.850Z,12.33
2019-02-28T19:52:13.529Z,13.50
2019-02-28T19:57:17.298Z,15.43
2019-02-28T20:02:21.081Z,15.63
2019-02-28T20:07:24.869Z,16.60
2019-02-28T20:12:28.610Z,15.33
2019-02-28T20:17:32.536Z,15.23
2019-02-28T20:22:36.768Z,15.90
2019-02-28T20:27:41.737Z,14.37
2019-02-28T20:32:45.491Z,15.37
2019-02-28T20:37:49.195Z,15.83
2019-02-28T20:42:54.664Z,14.47
2019-02-28T20:47:58.455Z,15.30
2019-02-28T20:53:10.038Z,15.50
2019-02-28T20:58:15.948Z,14.70
2019-02-28T21:03:23.929Z,16.83
2019-02-28T21:08:27.668Z,17.77
2019-02-28T21:13:31.416Z,18.90
2019-02-28T21:18:35.067Z,17.50
2019-02-28T21:23:38.760Z,18.87
2019-02-28T21:28:42.443Z,18.27
2019-02-28T21:33:46.390Z,19.40
2019-02-28T21:38:50.211Z,20.33
2019-02-28T21:43:53.979Z,19.20
2019-02-28T21:48:57.706Z,18.67
2019-02-28T21:54:01.342Z,18.53
2019-02-28T21:59:05.364Z,20.37
2019-02-28T22:04:09.098Z,20.13
2019-02-28T22:09:12.755Z,20.23
2019-02-28T22:14:16.513Z,22.20
2019-02-28T22:19:20.469Z,22.50
2019-02-28T22:24:26.549Z,23.00
2019-02-28T22:29:30.189Z,22.00
2019-02-28T22:34:42.487Z,22.67
2019-02-28T22:39:46.615Z,24.70
2019-02-28T22:44:50.322Z,23.17
2019-02-28T22:49:54.017Z,25.23
2019-02-28T22:54:57.671Z,24.97
2019-02-28T23:00:01.377Z,24.03
2019-02-28T23:05:05.278Z,23.60
2019-02-28T23:10:08.915Z,24.93
2019-02-28T23:15:12.656Z,22.93
2019-02-28T23:20:16.290Z,24.33
2019-02-28T23:25:19.969Z,24.13
2019-02-28T23:30:50.614Z,24.70
2019-02-28T23:35:54.402Z,27.87
2019-02-28T23:40:58.052Z,27.00
2019-02-28T23:46:02.051Z,29.50
2019-02-28T23:51:05.779Z,28.63
2019-02-28T23:56:09.460Z,30.80
